createdAt,value
2017-08-19T00:00:00.839Z,5.67
2017-08-19T00:02:29.219Z,6.20
2017-08-19T00:04:57.598Z,5.87
2017-08-19T00:07:25.977Z,5.50
2017-08-19T00:09:54.346Z,6.37
2017-08-19T00:12:22.642Z,6.27
2017-08-19T00:14:51.006Z,5.33
2017-08-19T00:17:19.394Z,5.97
2017-08-19T00:19:47.701Z,5.60
2017-08-19T00:22:16.853Z,4.70
2017-08-19T00:24:45.208Z,5.00
2017-08-19T00:27:13.505Z,6.00
2017-08-19T00:29:41.893Z,5.53
2017-08-19T00:32:10.206Z,6.30
2017-08-19T00:34:39.339Z,5.57
2017-08-19T00:37:07.645Z,6.03
2017-08-19T00:39:36.026Z,5.20
2017-08-19T00:42:04.366Z,5.90
2017-08-19T00:44:32.694Z,6.00
2017-08-19T00:47:01.022Z,6.17
2017-08-19T00:49:29.321Z,5.07
2017-08-19T00:51:57.710Z,5.37
2017-08-19T00:54:26.094Z,5.33
2017-08-19T00:56:54.388Z,6.50
2017-08-19T00:59:22.693Z,5.70
2017-08-19T01:01:51.021Z,6.00
2017-08-19T01:04:19.404Z,5.47
2017-08-19T01:06:47.786Z,6.40
2017-08-19T01:09:16.162Z,5.60
2017-08-19T01:11:44.541Z,5.70
2017-08-19T01:14:12.917Z,5.60
2017-08-19T01:16:41.222Z,7.47
2017-08-19T01:19:10.317Z,7.80
2017-08-19T01:21:39.386Z,8.07
2017-08-19T01:24:07.765Z,7.93
2017-08-19T01:27:01.705Z,7.70
2017-08-19T01:29:30.025Z,8.30
2017-08-19T01:31:58.397Z,7.90
2017-08-19T01:34:26.773Z,8.40
2017-08-19T01:36:55.144Z,8.53
2017-08-19T01:39:23.533Z,8.27
2017-08-19T01:41:51.909Z,9.10
2017-08-19T01:44:20.294Z,8.17
2017-08-19T01:46:48.610Z,9.23
2017-08-19T01:49:17.762Z,9.20
2017-08-19T01:51:46.069Z,10.23
2017-08-19T01:54:15.242Z,8.77
2017-08-19T01:56:43.542Z,9.67
2017-08-19T01:59:11.853Z,11.00
2017-08-19T02:01:40.155Z,10.10
2017-08-19T02:04:08.498Z,11.03
2017-08-19T02:06:36.830Z,9.33
2017-08-19T02:09:05.133Z,9.30
2017-08-19T02:11:34.292Z,9.70
2017-08-19T02:14:02.677Z,9.60
2017-08-19T02:19:28.712Z,8.30
2017-08-19T02:21:57.021Z,8.20
2017-08-19T02:24:25.381Z,8.40
2017-08-19T02:26:53.956Z,8.47
2017-08-19T02:29:22.337Z,7.73
2017-08-19T02:31:50.712Z,8.60
2017-08-19T02:34:19.095Z,6.90
2017-08-19T02:36:47.472Z,7.10
2017-08-19T02:39:15.853Z,6.43
2017-08-19T02:41:44.140Z,6.20
2017-08-19T02:44:12.508Z,7.40
2017-08-19T02:46:40.796Z,6.27
2017-08-19T02:49:09.175Z,6.50
2017-08-19T02:51:37.469Z,6.77
2017-08-19T02:54:05.813Z,6.00
2017-08-19T02:56:34.192Z,5.23
2017-08-19T02:59:02.584Z,5.80
2017-08-19T03:01:30.956Z,5.10
2017-08-19T03:03:59.330Z,4.90
2017-08-19T03:06:27.704Z,4.97
2017-08-19T03:08:56.000Z,4.00
2017-08-19T03:11:24.366Z,4.80
2017-08-19T03:13:52.674Z,4.87
2017-08-19T03:16:21.840Z,4.67
2017-08-19T03:18:50.129Z,4.40
2017-08-19T03:21:18.452Z,5.07
2017-08-19T03:23:46.774Z,4.93
2017-08-19T03:26:15.060Z,4.37
2017-08-19T03:28:43.369Z,4.70
2017-08-19T03:31:12.521Z,4.50
2017-08-19T03:33:40.908Z,5.67
2017-08-19T03:36:09.297Z,4.13
2017-08-19T03:38:37.597Z,4.73
2017-08-19T03:41:06.758Z,5.43
2017-08-19T03:43:35.134Z,5.50
2017-08-19T03:46:03.429Z,4.90
2017-08-19T03:48:31.794Z,4.83
2017-08-19T03:51:00.168Z,4.03
2017-08-19T03:53:28.548Z,4.80
2017-08-19T03:55:56.946Z,4.97
2017-08-19T03:58:25.300Z,4.90
2017-08-19T04:00:53.605Z,4.87
2017-08-19T04:03:21.902Z,4.50
2017-08-19T04:05:51.052Z,4.87
2017-08-19T04:08:19.509Z,4.50
2017-08-19T04:10:47.912Z,5.47
2017-08-19T04:13:16.295Z,4.50
2017-08-19T04:15:44.669Z,4.67
2017-08-19T04:18:13.048Z,5.67
2017-08-19T04:20:41.344Z,4.93
2017-08-19T04:23:09.705Z,4.63
2017-08-19T04:25:38.080Z,5.70
2017-08-19T04:28:06.461Z,5.00
2017-08-19T04:30:34.841Z,5.60
2017-08-19T04:33:03.224Z,5.67
2017-08-19T04:35:31.517Z,5.10
2017-08-19T04:37:59.805Z,4.60
2017-08-19T04:40:28.970Z,5.77
2017-08-19T04:42:57.361Z,5.23
2017-08-19T04:45:25.804Z,4.80
2017-08-19T04:47:54.215Z,4.73
2017-08-19T04:50:22.529Z,4.17
2017-08-19T04:52:51.691Z,5.23
2017-08-19T04:55:20.064Z,4.80
2017-08-19T04:57:48.398Z,4.57
2017-08-19T05:00:16.690Z,4.17
2017-08-19T05:02:45.003Z,5.50
2017-08-19T05:05:13.316Z,6.20
2017-08-19T05:07:42.469Z,4.90
2017-08-19T05:10:10.849Z,4.43
2017-08-19T05:12:39.158Z,5.10
2017-08-19T05:15:08.224Z,4.50
2017-08-19T05:17:36.603Z,4.90
2017-08-19T05:20:04.977Z,4.33
2017-08-19T05:22:33.277Z,4.33
2017-08-19T05:25:01.636Z,4.30
2017-08-19T05:27:30.013Z,3.50
2017-08-19T05:29:58.313Z,4.60
2017-08-19T05:32:26.607Z,4.13
2017-08-19T05:34:55.759Z,3.00
2017-08-19T05:37:24.049Z,4.00
2017-08-19T05:39:52.417Z,3.87
2017-08-19T05:42:20.793Z,4.10
2017-08-19T05:44:49.130Z,3.47
2017-08-19T05:47:17.425Z,3.03
2017-08-19T05:49:45.726Z,3.90
2017-08-19T05:52:14.033Z,3.73
2017-08-19T05:54:43.201Z,3.57
2017-08-19T05:57:11.504Z,3.80
2017-08-19T05:59:39.863Z,3.50
2017-08-19T06:02:08.241Z,3.60
2017-08-19T06:04:36.541Z,4.70
2017-08-19T06:07:04.845Z,3.30
2017-08-19T06:09:33.174Z,3.70
2017-08-19T06:12:01.546Z,3.70
2017-08-19T06:14:29.848Z,3.57
2017-08-19T06:16:58.201Z,3.30
2017-08-19T06:19:26.545Z,4.30
2017-08-19T06:21:54.861Z,3.13
2017-08-19T06:24:23.167Z,3.43
2017-08-19T06:26:52.329Z,3.30
2017-08-19T06:29:20.629Z,3.03
2017-08-19T06:31:48.921Z,2.40
2017-08-19T06:34:18.076Z,3.20
2017-08-19T06:36:46.470Z,2.30
2017-08-19T06:39:14.813Z,3.13
2017-08-19T06:41:43.141Z,2.67
2017-08-19T06:44:11.436Z,3.27
2017-08-19T06:46:40.594Z,3.10
2017-08-19T06:49:08.970Z,2.87
2017-08-19T06:51:37.340Z,3.00
2017-08-19T06:54:05.717Z,2.77
2017-08-19T06:56:34.020Z,2.70
2017-08-19T06:59:02.376Z,3.07
2017-08-19T07:01:30.680Z,3.07
2017-08-19T07:03:59.032Z,2.70
2017-08-19T07:06:27.374Z,2.60
2017-08-19T07:08:55.691Z,2.80
2017-08-19T07:11:24.069Z,2.90
2017-08-19T07:13:52.448Z,2.70
2017-08-19T07:16:20.825Z,2.37
2017-08-19T07:18:49.138Z,2.80
2017-08-19T07:21:18.301Z,2.80
2017-08-19T07:23:46.608Z,3.40
2017-08-19T07:26:15.690Z,2.47
2017-08-19T07:28:44.050Z,2.63
2017-08-19T07:31:12.430Z,3.03
2017-08-19T07:33:40.757Z,3.40
2017-08-19T07:36:09.080Z,3.60
2017-08-19T07:38:37.456Z,2.53
2017-08-19T07:41:05.833Z,2.93
2017-08-19T07:43:34.128Z,2.70
2017-08-19T07:46:02.497Z,2.80
2017-08-19T07:48:30.793Z,2.77
2017-08-19T07:50:59.100Z,2.00
2017-08-19T07:53:27.391Z,3.37
2017-08-19T07:55:55.692Z,2.43
2017-08-19T07:58:23.995Z,2.93
2017-08-19T08:00:52.358Z,3.07
2017-08-19T08:03:20.661Z,2.73
2017-08-19T08:05:48.956Z,2.63
2017-08-19T08:08:18.112Z,2.53
2017-08-19T08:10:46.489Z,2.60
2017-08-19T08:13:14.818Z,2.60
2017-08-19T08:15:43.121Z,2.67
2017-08-19T08:18:11.413Z,1.80
2017-08-19T08:20:39.720Z,1.80
2017-08-19T08:23:08.036Z,2.00
2017-08-19T08:25:36.349Z,2.40
2017-08-19T08:28:04.728Z,1.83
2017-08-19T08:30:33.105Z,2.20
2017-08-19T08:33:01.399Z,1.80
2017-08-19T08:35:29.717Z,2.03
2017-08-19T08:37:58.139Z,1.90
2017-08-19T08:40:26.519Z,1.40
2017-08-19T08:42:54.897Z,1.80
2017-08-19T08:45:23.273Z,1.87
2017-08-19T08:47:51.573Z,2.53
2017-08-19T08:50:19.939Z,2.87
2017-08-19T08:52:48.317Z,2.43
2017-08-19T08:55:16.614Z,1.70
2017-08-19T08:57:44.973Z,1.97
2017-08-19T09:00:13.445Z,1.90
2017-08-19T09:02:41.783Z,1.80
2017-08-19T09:05:10.181Z,1.67
2017-08-19T09:07:38.477Z,2.30
2017-08-19T09:10:06.869Z,2.00
2017-08-19T09:12:35.162Z,1.60
2017-08-19T09:15:03.512Z,1.63
2017-08-19T09:17:31.898Z,1.10
2017-08-19T09:20:00.199Z,1.17
2017-08-19T09:22:28.549Z,1.10
2017-08-19T09:24:56.844Z,0.87
2017-08-19T09:27:25.204Z,0.80
2017-08-19T09:29:53.584Z,1.00
2017-08-19T09:32:21.964Z,0.80
2017-08-19T09:34:50.348Z,0.70
2017-08-19T09:37:18.717Z,0.90
2017-08-19T09:39:47.105Z,0.97
2017-08-19T09:42:15.488Z,0.93
2017-08-19T09:44:43.857Z,1.10
2017-08-19T09:47:12.153Z,0.70
2017-08-19T09:49:40.509Z,1.10
2017-08-19T09:52:08.889Z,0.63
2017-08-19T09:54:37.264Z,0.63
2017-08-19T09:57:05.646Z,0.63
2017-08-19T09:59:34.026Z,1.10
2017-08-19T10:02:02.405Z,0.80
2017-08-19T10:04:30.860Z,0.70
2017-08-19T10:06:59.161Z,0.80
2017-08-19T10:09:41.065Z,0.60
2017-08-19T10:12:09.441Z,0.60
2017-08-19T10:14:37.891Z,0.80
2017-08-19T10:17:06.192Z,0.80
2017-08-19T10:19:34.487Z,0.90
2017-08-19T10:22:02.795Z,0.97
2017-08-19T10:24:31.089Z,0.90
2017-08-19T10:26:59.504Z,1.10
2017-08-19T10:29:27.884Z,1.00
2017-08-19T10:31:56.261Z,0.90
2017-08-19T10:34:24.645Z,0.90
2017-08-19T10:36:52.943Z,0.60
2017-08-19T10:39:21.298Z,1.07
2017-08-19T10:41:49.597Z,0.87
2017-08-19T10:44:17.954Z,0.80
2017-08-19T10:46:46.325Z,1.00
2017-08-19T10:49:14.714Z,1.30
2017-08-19T10:51:43.085Z,1.33
2017-08-19T10:54:11.463Z,1.40
2017-08-19T10:56:39.844Z,1.30
2017-08-19T10:59:08.229Z,1.40
2017-08-19T11:01:36.635Z,1.37
2017-08-19T11:04:05.696Z,1.40
2017-08-19T11:06:34.074Z,1.10
2017-08-19T11:09:02.377Z,1.40
2017-08-19T11:11:30.684Z,1.40
2017-08-19T11:13:58.997Z,1.93
2017-08-19T11:16:27.358Z,1.10
2017-08-19T11:18:55.657Z,0.70
2017-08-19T11:21:29.877Z,1.07
2017-08-19T11:23:58.357Z,1.40
2017-08-19T11:26:26.653Z,1.10
2017-08-19T11:28:54.960Z,0.80
2017-08-19T11:31:24.082Z,1.20
2017-08-19T11:33:52.484Z,1.20
2017-08-19T11:36:20.774Z,1.10
2017-08-19T11:38:49.073Z,1.30
2017-08-19T11:41:18.129Z,0.83
2017-08-19T11:43:46.513Z,1.20
2017-08-19T11:46:14.893Z,1.10
2017-08-19T11:48:43.269Z,1.30
2017-08-19T11:51:11.653Z,1.77
2017-08-19T11:53:40.024Z,1.43
2017-08-19T11:56:08.413Z,1.30
2017-08-19T11:58:36.713Z,1.23
2017-08-19T12:01:05.064Z,1.17
2017-08-19T12:03:33.545Z,1.00
2017-08-19T12:06:01.921Z,1.10
2017-08-19T12:08:30.214Z,1.10
2017-08-19T12:10:58.513Z,1.00
2017-08-19T12:13:27.681Z,1.13
2017-08-19T12:15:56.011Z,1.67
2017-08-19T12:18:24.325Z,1.27
2017-08-19T12:20:52.705Z,1.20
2017-08-19T12:23:21.081Z,1.37
2017-08-19T12:25:49.538Z,1.30
2017-08-19T12:28:17.845Z,1.13
2017-08-19T12:30:46.161Z,1.03
2017-08-19T12:33:15.312Z,1.23
2017-08-19T12:35:43.709Z,1.30
2017-08-19T12:38:12.080Z,0.83
2017-08-19T12:40:40.388Z,1.60
2017-08-19T12:43:09.559Z,1.30
2017-08-19T12:45:37.925Z,1.60
2017-08-19T12:48:06.217Z,0.90
2017-08-19T12:50:34.569Z,1.20
2017-08-19T12:53:02.970Z,1.40
2017-08-19T12:55:31.277Z,1.10
2017-08-19T12:58:00.438Z,2.07
2017-08-19T13:00:28.769Z,1.53
2017-08-19T13:02:57.061Z,1.20
2017-08-19T13:05:25.365Z,0.77
2017-08-19T13:07:53.756Z,1.00
2017-08-19T13:10:22.131Z,1.23
2017-08-19T13:12:50.505Z,1.47
2017-08-19T13:15:18.885Z,1.33
2017-08-19T13:17:47.214Z,1.37
2017-08-19T13:20:15.505Z,1.00
2017-08-19T13:22:43.797Z,1.17
2017-08-19T13:25:12.189Z,1.23
2017-08-19T13:27:40.502Z,1.13
2017-08-19T13:30:09.588Z,0.87
2017-08-19T13:32:37.951Z,1.53
2017-08-19T13:35:06.321Z,1.03
2017-08-19T13:37:34.629Z,0.90
2017-08-19T13:40:02.976Z,1.20
2017-08-19T13:42:31.358Z,1.33
2017-08-19T13:44:59.649Z,1.17
2017-08-19T13:47:27.937Z,1.10
2017-08-19T13:49:56.386Z,1.20
2017-08-19T13:52:24.771Z,1.20
2017-08-19T13:54:53.157Z,1.50
2017-08-19T13:57:21.455Z,1.47
2017-08-19T13:59:50.632Z,1.17
2017-08-19T14:02:18.933Z,1.60
2017-08-19T14:04:48.097Z,1.20
2017-08-19T14:07:16.429Z,1.03
2017-08-19T14:09:44.731Z,1.63
2017-08-19T14:12:13.129Z,1.93
2017-08-19T14:14:41.437Z,1.63
2017-08-19T14:17:09.796Z,1.17
2017-08-19T14:19:38.117Z,1.07
2017-08-19T14:22:06.440Z,1.93
2017-08-19T14:24:34.821Z,1.30
2017-08-19T14:27:03.201Z,1.37
2017-08-19T14:29:31.588Z,0.93
2017-08-19T14:31:59.909Z,1.87
2017-08-19T14:34:28.196Z,1.23
2017-08-19T14:36:56.508Z,1.10
2017-08-19T14:39:24.890Z,1.23
2017-08-19T14:41:53.269Z,1.23
2017-08-19T14:44:21.640Z,1.40
2017-08-19T14:46:50.024Z,1.43
2017-08-19T14:49:18.317Z,1.80
2017-08-19T14:51:46.681Z,1.10
2017-08-19T14:54:14.975Z,1.77
2017-08-19T14:56:43.340Z,1.50
2017-08-19T14:59:11.708Z,1.00
2017-08-19T15:01:40.001Z,1.57
2017-08-19T15:04:08.305Z,1.23
2017-08-19T15:06:37.369Z,1.40
2017-08-19T15:09:05.702Z,1.63
2017-08-19T15:11:33.996Z,1.77
2017-08-19T15:14:02.293Z,1.40
2017-08-19T15:16:30.616Z,1.60
2017-08-19T15:18:59.770Z,1.70
2017-08-19T15:21:28.145Z,1.30
2017-08-19T15:23:56.438Z,1.80
2017-08-19T15:26:24.732Z,1.37
2017-08-19T15:28:53.801Z,1.47
2017-08-19T15:31:22.169Z,1.63
2017-08-19T15:33:50.549Z,1.60
2017-08-19T15:36:18.928Z,1.50
2017-08-19T15:38:47.225Z,1.20
2017-08-19T15:41:15.589Z,1.20
2017-08-19T15:43:43.897Z,1.33
2017-08-19T15:46:12.224Z,1.70
2017-08-19T15:48:40.513Z,1.40
2017-08-19T15:51:08.908Z,1.67
2017-08-19T15:53:37.279Z,1.20
2017-08-19T15:56:05.573Z,1.33
2017-08-19T15:58:33.925Z,1.37
2017-08-19T16:01:02.227Z,1.70
2017-08-19T16:03:30.589Z,1.30
2017-08-19T16:05:58.966Z,1.33
2017-08-19T16:08:27.338Z,1.37
2017-08-19T16:10:55.660Z,1.43
2017-08-19T16:13:24.717Z,1.60
2017-08-19T16:15:53.096Z,1.70
2017-08-19T16:18:21.393Z,1.03
2017-08-19T16:20:49.696Z,1.63
2017-08-19T16:23:18.125Z,1.17
2017-08-19T16:25:46.416Z,0.93
2017-08-19T16:28:14.708Z,1.33
2017-08-19T16:30:43.012Z,1.57
2017-08-19T16:33:11.362Z,1.60
2017-08-19T16:35:39.685Z,1.63
2017-08-19T16:38:07.981Z,1.43
2017-08-19T16:40:36.276Z,1.73
2017-08-19T16:43:04.664Z,1.43
2017-08-19T16:45:33.028Z,1.50
2017-08-19T16:48:01.397Z,1.27
2017-08-19T16:50:29.780Z,2.17
2017-08-19T16:52:58.068Z,1.10
2017-08-19T16:55:26.433Z,1.30
2017-08-19T16:57:54.809Z,1.17
2017-08-19T17:00:23.128Z,2.53
2017-08-19T17:02:52.185Z,1.73
2017-08-19T17:05:20.482Z,1.23
2017-08-19T17:07:48.841Z,1.80
2017-08-19T17:10:17.128Z,0.90
2017-08-19T17:12:45.448Z,1.40
2017-08-19T17:15:13.778Z,1.30
2017-08-19T17:17:42.068Z,1.63
2017-08-19T17:20:10.433Z,1.83
2017-08-19T17:22:38.721Z,1.77
2017-08-19T17:25:07.094Z,1.70
2017-08-19T17:27:35.385Z,1.80
2017-08-19T17:30:03.742Z,1.63
2017-08-19T17:32:32.044Z,1.30
2017-08-19T17:35:01.106Z,1.50
2017-08-19T17:37:29.501Z,1.30
2017-08-19T17:39:57.860Z,1.83
2017-08-19T17:42:26.248Z,1.40
2017-08-19T17:44:54.556Z,1.50
2017-08-19T17:47:23.723Z,1.20
2017-08-19T17:49:52.100Z,1.57
2017-08-19T17:52:20.502Z,1.30
2017-08-19T17:54:48.863Z,0.97
2017-08-19T17:57:17.172Z,1.20
2017-08-19T17:59:46.236Z,1.37
2017-08-19T18:02:14.557Z,1.40
2017-08-19T18:04:42.885Z,1.43
2017-08-19T18:07:11.182Z,1.60
2017-08-19T18:09:39.485Z,1.63
2017-08-19T18:12:09.573Z,1.50
2017-08-19T18:14:37.932Z,1.60
2017-08-19T18:17:06.221Z,1.80
2017-08-19T18:19:34.696Z,1.20
2017-08-19T18:22:03.073Z,1.43
2017-08-19T18:24:31.365Z,1.50
2017-08-19T18:26:59.728Z,1.20
2017-08-19T18:29:28.101Z,1.13
2017-08-19T18:31:56.484Z,1.20
2017-08-19T18:34:24.789Z,1.67
2017-08-19T18:36:53.853Z,1.70
2017-08-19T18:39:22.149Z,1.40
2017-08-19T18:41:50.506Z,1.73
2017-08-19T18:44:18.888Z,1.60
2017-08-19T18:46:47.183Z,1.17
2017-08-19T18:49:15.540Z,1.80
2017-08-19T18:51:43.916Z,1.50
2017-08-19T18:54:12.232Z,1.30
2017-08-19T18:56:41.405Z,1.40
2017-08-19T18:59:09.692Z,1.33
2017-08-19T19:01:37.999Z,1.20
2017-08-19T19:04:06.329Z,1.63
2017-08-19T19:06:34.625Z,1.27
2017-08-19T19:09:02.914Z,1.60
2017-08-19T19:11:31.977Z,1.73
2017-08-19T19:14:00.265Z,1.10
2017-08-19T19:16:28.580Z,2.70
2017-08-19T19:18:56.878Z,1.50
2017-08-19T19:21:25.196Z,1.10
2017-08-19T19:23:53.491Z,1.70
2017-08-19T19:26:22.549Z,1.77
2017-08-19T19:28:50.848Z,1.57
2017-08-19T19:31:19.184Z,1.37
2017-08-19T19:33:47.493Z,1.57
2017-08-19T19:36:15.784Z,2.23
2017-08-19T19:38:44.100Z,1.40
2017-08-19T19:41:12.408Z,2.80
2017-08-19T19:43:40.722Z,2.30
2017-08-19T19:46:09.790Z,1.73
2017-08-19T19:48:38.083Z,2.10
2017-08-19T19:51:06.404Z,2.03
2017-08-19T19:53:34.708Z,1.90
2017-08-19T19:56:03.025Z,2.40
2017-08-19T19:58:31.338Z,1.90
2017-08-19T20:00:59.652Z,2.80
2017-08-19T20:03:27.966Z,6.63
2017-08-19T20:05:57.039Z,8.00
2017-08-19T20:08:25.344Z,33.30
2017-08-19T20:10:54.489Z,17.30
2017-08-19T20:13:22.780Z,3.03
2017-08-19T20:15:51.129Z,1.60
2017-08-19T20:18:19.433Z,2.73
2017-08-19T20:20:47.736Z,1.47
2017-08-19T20:23:16.045Z,6.43
2017-08-19T20:25:44.342Z,1.80
2017-08-19T20:28:12.640Z,1.67
2017-08-19T20:30:40.933Z,2.30
2017-08-19T20:33:09.269Z,1.83
2017-08-19T20:35:37.565Z,2.13
2017-08-19T20:38:05.951Z,2.90
2017-08-19T20:40:34.341Z,2.33
2017-08-19T20:43:02.707Z,2.70
2017-08-19T20:45:31.090Z,2.30
2017-08-19T20:47:59.472Z,3.60
2017-08-19T20:50:27.845Z,5.30
2017-08-19T20:52:56.161Z,2.47
2017-08-19T20:55:25.256Z,2.47
2017-08-19T20:57:54.421Z,2.10
2017-08-19T21:00:22.792Z,2.20
2017-08-19T21:02:51.168Z,2.60
2017-08-19T21:05:19.457Z,2.93
2017-08-19T21:07:47.765Z,9.80
2017-08-19T21:10:16.096Z,5.47
2017-08-19T21:12:44.419Z,10.87
2017-08-19T21:15:14.304Z,7.87
2017-08-19T21:17:42.616Z,3.17
2017-08-19T21:20:11.691Z,2.20
2017-08-19T21:22:40.041Z,3.60
2017-08-19T21:25:08.348Z,3.03
2017-08-19T21:27:36.697Z,3.40
2017-08-19T21:30:05.072Z,2.40
2017-08-19T21:32:33.358Z,4.43
2017-08-19T21:35:01.657Z,2.40
2017-08-19T21:37:30.012Z,2.73
2017-08-19T21:39:58.393Z,2.10
2017-08-19T21:42:26.700Z,2.80
2017-08-19T21:44:55.873Z,3.00
2017-08-19T21:47:24.187Z,2.60
2017-08-19T21:49:53.351Z,1.70
2017-08-19T21:52:21.694Z,3.10
2017-08-19T21:54:50.088Z,2.33
2017-08-19T21:57:18.469Z,5.10
2017-08-19T21:59:46.850Z,2.90
2017-08-19T22:02:15.169Z,3.77
2017-08-19T22:04:44.336Z,2.50
2017-08-19T22:07:12.637Z,2.07
2017-08-19T22:09:41.705Z,3.83
2017-08-19T22:12:10.030Z,2.40
2017-08-19T22:14:38.365Z,2.27
2017-08-19T22:17:06.739Z,1.60
2017-08-19T22:19:35.117Z,1.70
2017-08-19T22:22:03.485Z,1.80
2017-08-19T22:24:31.868Z,1.73
2017-08-19T22:27:00.177Z,2.53
2017-08-19T22:29:29.340Z,1.47
2017-08-19T22:31:57.632Z,1.60
2017-08-19T22:34:25.998Z,2.07
2017-08-19T22:36:54.311Z,1.70
2017-08-19T22:39:23.485Z,2.27
2017-08-19T22:41:51.793Z,2.33
2017-08-19T22:44:20.941Z,2.33
2017-08-19T22:46:49.334Z,2.00
2017-08-19T22:49:17.720Z,2.03
2017-08-19T22:51:46.095Z,2.60
2017-08-19T22:54:14.455Z,2.27
2017-08-19T22:56:43.348Z,3.10
2017-08-19T22:59:11.720Z,2.00
2017-08-19T23:01:40.073Z,1.73
2017-08-19T23:04:08.360Z,1.70
2017-08-19T23:06:36.657Z,1.93
2017-08-19T23:09:04.956Z,2.10
2017-08-19T23:11:33.248Z,2.13
2017-08-19T23:14:02.329Z,2.00
2017-08-19T23:16:30.641Z,1.67
2017-08-19T23:18:58.942Z,1.83
2017-08-19T23:21:27.344Z,1.90
2017-08-19T23:23:55.654Z,2.00
2017-08-19T23:26:23.970Z,2.00
2017-08-19T23:28:52.276Z,1.97
2017-08-19T23:31:20.648Z,2.50
2017-08-19T23:33:48.936Z,1.93
2017-08-19T23:36:17.278Z,1.57
2017-08-19T23:38:45.605Z,2.10
2017-08-19T23:41:13.965Z,2.00
2017-08-19T23:43:42.346Z,2.30
2017-08-19T23:46:10.650Z,1.67
2017-08-19T23:48:39.720Z,2.27
2017-08-19T23:51:08.066Z,2.33
2017-08-19T23:53:36.360Z,1.77
2017-08-19T23:56:04.683Z,2.10
2017-08-19T23:58:33.838Z,2.17
